Terminal Aerodrome Forecast
Issued by NWS Sterling, VA

Current Version | Previous Version | Text Only | Print | Product List | Glossary On
Versions: 1 2 3 4 5 6 7 8 9 10 11 12 13 14
000
FTUS41 KLWX 220500
TAFCHO
TAF
KCHO 220538Z 2206/2306 35012KT 5SM -SHRA OVC040
     FM221200 34014KT P6SM SCT015 OVC020
     FM221300 34015G23KT P6SM SCT015 OVC025
     FM221500 34017G25KT P6SM BKN040
     FM222200 33012KT P6SM BKN200=

USA.gov is the U.S. government's official web portal to all federal, state and local government web resources and services.